Terminal Aerodrome Forecast
Issued by NWS

Home | Current Version | Previous Version | Text Only | Print | Product List | Glossary On
Versions: 1 2 3 4 5 6 7 8 9 10 11 12 13
374
FTUS45 KRIW 141720
TAFCPR
TAF
KCPR 141720Z 1418/1518 24020G28KT P6SM SCT080 BKN150
     FM150100 28014KT P6SM VCSH BKN060
     FM150700 24012KT P6SM SCT080 BKN140
     FM151500 23022G29KT P6SM SCT070 BKN120=

USA.gov is the U.S. government's official web portal to all federal, state and local government web resources and services.